Time,TemperatureF,DewpointF,PressureIn,WindDirection,WindDirectionDegrees,WindSpeedMPH,WindSpeedGustMPH,Humidity,HourlyPrecipIn,Conditions,Clouds,dailyrainin,SoftwareType,DateUTC
2013-06-13 00:07:00,64.6,61.6,29.71,South,180,0.0,-999.0,90,-99.99,,,0.00,Acu-Link.com,2013-06-13 04:07:00,
2013-06-13 00:22:00,64.4,61.4,29.70,South,180,0.0,-999.0,90,-99.99,,,0.00,Acu-Link.com,2013-06-13 04:22:00,
2013-06-13 00:38:00,63.7,60.7,29.68,West,270,0.0,-999.0,90,-99.99,,,0.00,Acu-Link.com,2013-06-13 04:38:00,
2013-06-13 00:53:00,63.0,60.3,29.69,West,270,0.0,-999.0,91,-99.99,,,0.00,Acu-Link.com,2013-06-13 04:53:00,
2013-06-13 01:08:00,62.8,60.7,29.68,ESE,112,0.0,-999.0,93,-99.99,,,0.00,Acu-Link.com,2013-06-13 05:08:00,
2013-06-13 01:24:00,62.6,60.5,29.66,South,180,0.0,-999.0,93,-99.99,,,0.00,Acu-Link.com,2013-06-13 05:24:00,
2013-06-13 01:39:00,62.4,60.6,29.67,West,270,2.7,-999.0,94,-99.99,,,0.00,Acu-Link.com,2013-06-13 05:39:00,
2013-06-13 01:54:00,63.0,60.6,29.67,SE,135,0.0,-999.0,92,-99.99,,,0.00,Acu-Link.com,2013-06-13 05:54:00,
2013-06-13 02:09:00,63.1,60.4,29.67,South,180,0.0,-999.0,91,-99.99,,,0.00,Acu-Link.com,2013-06-13 06:09:00,
2013-06-13 02:25:00,63.9,61.2,29.69,West,270,6.3,-999.0,91,-99.99,,,0.00,Acu-Link.com,2013-06-13 06:25:00,
2013-06-13 02:40:00,64.2,62.4,29.68,South,180,1.1,-999.0,94,-99.99,,,0.01,Acu-Link.com,2013-06-13 06:40:00,
2013-06-13 02:55:00,63.3,62.7,29.66,SW,225,0.0,-999.0,98,-99.99,,,0.05,Acu-Link.com,2013-06-13 06:55:00,
2013-06-13 03:10:00,62.8,62.5,29.66,WSW,247,0.0,-999.0,99,-99.99,,,0.05,Acu-Link.com,2013-06-13 07:10:00,
2013-06-13 03:26:00,62.4,61.8,29.65,SSE,157,1.7,-999.0,98,-99.99,,,0.05,Acu-Link.com,2013-06-13 07:26:00,
2013-06-13 03:41:00,62.2,61.3,29.64,East,90,2.2,-999.0,97,-99.99,,,0.05,Acu-Link.com,2013-06-13 07:41:00,
2013-06-13 03:56:00,62.1,61.2,29.64,ESE,112,1.7,-999.0,97,-99.99,,,0.05,Acu-Link.com,2013-06-13 07:56:00,
2013-06-13 04:12:00,62.1,61.5,29.63,NNE,22,1.7,-999.0,98,-99.99,,,0.05,Acu-Link.com,2013-06-13 08:12:00,
2013-06-13 04:27:00,62.1,61.5,29.62,East,90,2.7,-999.0,98,-99.99,,,0.05,Acu-Link.com,2013-06-13 08:27:00,
2013-06-13 04:42:00,61.9,61.3,29.61,East,90,1.7,-999.0,98,-99.99,,,0.05,Acu-Link.com,2013-06-13 08:42:00,
2013-06-13 04:57:00,61.5,61.2,29.61,East,90,4.2,-999.0,99,-99.99,,,0.05,Acu-Link.com,2013-06-13 08:57:00,
2013-06-13 05:13:00,61.3,61.0,29.61,SSE,157,1.7,-999.0,99,-99.99,,,0.16,Acu-Link.com,2013-06-13 09:13:00,
2013-06-13 05:28:00,61.3,61.0,29.61,NNE,22,1.7,-999.0,99,-99.99,,,0.18,Acu-Link.com,2013-06-13 09:28:00,
2013-06-13 05:43:00,61.3,61.0,29.59,West,270,1.1,-999.0,99,-99.99,,,0.18,Acu-Link.com,2013-06-13 09:43:00,
2013-06-13 05:58:00,61.5,61.2,29.57,West,270,1.7,-999.0,99,-99.99,,,0.18,Acu-Link.com,2013-06-13 09:58:00,
2013-06-13 06:14:00,61.3,61.0,29.58,WSW,247,0.0,-999.0,99,-99.99,,,0.18,Acu-Link.com,2013-06-13 10:14:00,
2013-06-13 06:29:00,61.7,61.4,29.57,South,180,0.0,-999.0,99,-99.99,,,0.18,Acu-Link.com,2013-06-13 10:29:00,
2013-06-13 06:44:00,61.3,61.0,29.58,ESE,112,0.0,-999.0,99,-99.99,,,0.19,Acu-Link.com,2013-06-13 10:44:00,
2013-06-13 06:59:00,61.2,60.9,29.57,North,0,1.7,-999.0,99,-99.99,,,0.20,Acu-Link.com,2013-06-13 10:59:00,
2013-06-13 07:15:00,61.2,60.9,29.57,ESE,112,1.7,-999.0,99,-99.99,,,0.20,Acu-Link.com,2013-06-13 11:15:00,
2013-06-13 07:30:00,61.2,60.9,29.57,WNW,292,1.7,-999.0,99,-99.99,,,0.33,Acu-Link.com,2013-06-13 11:30:00,
2013-06-13 07:45:00,61.2,60.9,29.57,ESE,112,2.2,-999.0,99,-99.99,,,0.50,Acu-Link.com,2013-06-13 11:45:00,
2013-06-13 08:01:00,61.0,60.7,29.55,NE,45,2.2,-999.0,99,-99.99,,,0.61,Acu-Link.com,2013-06-13 12:01:00,
2013-06-13 08:16:00,61.2,60.9,29.53,ESE,112,1.7,-999.0,99,-99.99,,,0.67,Acu-Link.com,2013-06-13 12:16:00,
2013-06-13 08:31:00,61.2,60.9,29.50,SSE,157,2.2,-999.0,99,-99.99,,,0.71,Acu-Link.com,2013-06-13 12:31:00,
2013-06-13 08:47:00,61.5,61.2,29.48,ENE,67,3.2,-999.0,99,-99.99,,,0.71,Acu-Link.com,2013-06-13 12:47:00,
2013-06-13 09:02:00,62.6,62.3,29.48,South,180,2.7,-999.0,99,-99.99,,,0.71,Acu-Link.com,2013-06-13 13:02:00,
2013-06-13 09:17:00,64.2,63.9,29.47,East,90,2.2,-999.0,99,-99.99,,,0.71,Acu-Link.com,2013-06-13 13:17:00,
2013-06-13 09:32:00,66.4,65.8,29.46,NNE,22,1.7,-999.0,98,-99.99,,,0.71,Acu-Link.com,2013-06-13 13:32:00,
2013-06-13 09:48:00,66.7,65.8,29.47,WNW,292,2.2,-999.0,97,-99.99,,,0.71,Acu-Link.com,2013-06-13 13:48:00,
2013-06-13 10:03:00,66.4,65.2,29.46,ESE,112,3.2,-999.0,96,-99.99,,,0.71,Acu-Link.com,2013-06-13 14:03:00,
2013-06-13 10:18:00,66.2,65.9,29.46,WSW,247,0.0,-999.0,99,-99.99,,,0.71,Acu-Link.com,2013-06-13 14:18:00,
2013-06-13 10:34:00,66.7,66.4,29.43,West,270,3.2,-999.0,99,-99.99,,,0.71,Acu-Link.com,2013-06-13 14:34:00,
2013-06-13 10:49:00,67.3,66.4,29.42,South,180,4.2,-999.0,97,-99.99,,,0.71,Acu-Link.com,2013-06-13 14:49:00,
2013-06-13 11:04:00,66.7,65.8,29.42,SSW,202,2.7,-999.0,97,-99.99,,,0.71,Acu-Link.com,2013-06-13 15:04:00,
2013-06-13 11:19:00,67.3,66.4,29.41,SSW,202,1.7,-999.0,97,-99.99,,,0.72,Acu-Link.com,2013-06-13 15:19:00,
2013-06-13 11:34:00,69.3,68.1,29.40,East,90,2.2,-999.0,96,-99.99,,,0.72,Acu-Link.com,2013-06-13 15:34:00,
2013-06-13 11:50:00,70.5,68.4,29.40,SE,135,5.3,-999.0,93,-99.99,,,0.72,Acu-Link.com,2013-06-13 15:50:00,
2013-06-13 12:05:00,70.3,67.5,29.39,West,270,5.8,-999.0,91,-99.99,,,0.72,Acu-Link.com,2013-06-13 16:05:00,
2013-06-13 12:20:00,70.7,67.6,29.38,SSE,157,3.7,-999.0,90,-99.99,,,0.72,Acu-Link.com,2013-06-13 16:20:00,
2013-06-13 12:35:00,71.1,68.0,29.36,South,180,4.2,-999.0,90,-99.99,,,0.72,Acu-Link.com,2013-06-13 16:35:00,
2013-06-13 12:51:00,71.8,68.7,29.35,WSW,247,2.7,-999.0,90,-99.99,,,0.72,Acu-Link.com,2013-06-13 16:51:00,
2013-06-13 13:06:00,72.0,69.2,29.34,South,180,3.7,-999.0,91,-99.99,,,0.72,Acu-Link.com,2013-06-13 17:06:00,
2013-06-13 13:21:00,72.0,69.2,29.33,NNE,22,1.7,-999.0,91,-99.99,,,0.72,Acu-Link.com,2013-06-13 17:21:00,
2013-06-13 13:37:00,69.6,67.8,29.34,WNW,292,2.7,-999.0,94,-99.99,,,0.75,Acu-Link.com,2013-06-13 17:37:00,
2013-06-13 13:52:00,69.3,66.9,29.34,SSW,202,4.7,-999.0,92,-99.99,,,0.80,Acu-Link.com,2013-06-13 17:52:00,
2013-06-13 14:07:00,70.2,67.8,29.33,WNW,292,2.7,-999.0,92,-99.99,,,0.82,Acu-Link.com,2013-06-13 18:07:00,
2013-06-13 14:22:00,70.3,67.9,29.32,WNW,292,2.7,-999.0,92,-99.99,,,0.82,Acu-Link.com,2013-06-13 18:22:00,
2013-06-13 14:38:00,70.3,67.9,29.34,West,270,3.7,-999.0,92,-99.99,,,0.82,Acu-Link.com,2013-06-13 18:38:00,
2013-06-13 14:53:00,73.2,70.7,29.32,West,270,4.7,-999.0,92,-99.99,,,0.82,Acu-Link.com,2013-06-13 18:53:00,
2013-06-13 15:09:00,74.5,69.0,29.32,West,270,3.2,-999.0,83,-99.99,,,0.82,Acu-Link.com,2013-06-13 19:09:00,
2013-06-13 15:24:00,74.3,68.1,29.32,WNW,292,2.7,-999.0,81,-99.99,,,0.82,Acu-Link.com,2013-06-13 19:24:00,
2013-06-13 15:39:00,73.8,67.2,29.31,NW,315,9.9,-999.0,80,-99.99,,,0.82,Acu-Link.com,2013-06-13 19:39:00,
2013-06-13 15:54:00,73.0,66.5,29.32,WSW,247,4.7,-999.0,80,-99.99,,,0.82,Acu-Link.com,2013-06-13 19:54:00,
2013-06-13 16:09:00,72.1,66.3,29.32,SW,225,4.2,-999.0,82,-99.99,,,0.82,Acu-Link.com,2013-06-13 20:09:00,
2013-06-13 16:24:00,72.3,66.1,29.31,NW,315,4.7,-999.0,81,-99.99,,,0.82,Acu-Link.com,2013-06-13 20:24:00,
2013-06-13 16:39:00,72.1,65.6,29.32,West,270,8.9,-999.0,80,-99.99,,,0.82,Acu-Link.com,2013-06-13 20:39:00,
2013-06-13 16:55:00,72.0,65.5,29.31,West,270,8.3,-999.0,80,-99.99,,,0.82,Acu-Link.com,2013-06-13 20:55:00,
2013-06-13 17:10:00,72.0,65.1,29.32,WSW,247,5.3,-999.0,79,-99.99,,,0.82,Acu-Link.com,2013-06-13 21:10:00,
2013-06-13 17:25:00,71.4,65.3,29.31,West,270,7.8,-999.0,81,-99.99,,,0.82,Acu-Link.com,2013-06-13 21:25:00,
2013-06-13 17:40:00,70.5,65.1,29.32,WSW,247,5.3,-999.0,83,-99.99,,,0.82,Acu-Link.com,2013-06-13 21:40:00,
2013-06-13 17:56:00,68.5,64.5,29.32,West,270,2.7,-999.0,87,-99.99,,,0.82,Acu-Link.com,2013-06-13 21:56:00,
2013-06-13 18:11:00,68.4,64.4,29.32,NE,45,0.0,-999.0,87,-99.99,,,0.82,Acu-Link.com,2013-06-13 22:11:00,
2013-06-13 18:26:00,68.0,64.3,29.34,NE,45,2.7,-999.0,88,-99.99,,,0.83,Acu-Link.com,2013-06-13 22:26:00,
2013-06-13 18:41:00,67.8,64.4,29.34,ENE,67,4.2,-999.0,89,-99.99,,,0.83,Acu-Link.com,2013-06-13 22:41:00,
2013-06-13 18:56:00,66.9,63.5,29.36,NNW,337,1.7,-999.0,89,-99.99,,,0.84,Acu-Link.com,2013-06-13 22:56:00,
2013-06-13 19:12:00,65.5,62.2,29.37,ESE,112,6.8,-999.0,89,-99.99,,,0.85,Acu-Link.com,2013-06-13 23:12:00,
2013-06-13 19:27:00,64.2,60.9,29.38,NNW,337,5.3,-999.0,89,-99.99,,,0.86,Acu-Link.com,2013-06-13 23:27:00,
2013-06-13 19:42:00,63.5,60.8,29.40,NNE,22,1.1,-999.0,91,-99.99,,,0.87,Acu-Link.com,2013-06-13 23:42:00,
2013-06-13 19:58:00,62.4,59.7,29.40,NNW,337,1.7,-999.0,91,-99.99,,,0.88,Acu-Link.com,2013-06-13 23:58:00,
2013-06-13 20:13:00,61.9,59.5,29.42,NW,315,1.7,-999.0,92,-99.99,,,0.88,Acu-Link.com,2013-06-14 00:13:00,
2013-06-13 20:28:00,61.3,59.0,29.43,North,0,5.3,-999.0,92,-99.99,,,0.88,Acu-Link.com,2013-06-14 00:28:00,
2013-06-13 20:43:00,60.8,58.5,29.44,East,90,6.8,-999.0,92,-99.99,,,0.89,Acu-Link.com,2013-06-14 00:43:00,
2013-06-13 20:58:00,60.4,58.1,29.45,North,0,4.2,-999.0,92,-99.99,,,0.90,Acu-Link.com,2013-06-14 00:58:00,
2013-06-13 21:13:00,60.3,57.4,29.46,East,90,2.7,-999.0,90,-99.99,,,0.90,Acu-Link.com,2013-06-14 01:13:00,
2013-06-13 21:28:00,60.1,55.9,29.47,West,270,3.7,-999.0,86,-99.99,,,0.90,Acu-Link.com,2013-06-14 01:28:00,
2013-06-13 21:44:00,60.1,55.9,29.48,WNW,292,1.7,-999.0,86,-99.99,,,0.90,Acu-Link.com,2013-06-14 01:44:00,
2013-06-13 21:59:00,59.7,55.8,29.50,North,0,2.2,-999.0,87,-99.99,,,0.90,Acu-Link.com,2013-06-14 01:59:00,
2013-06-13 22:14:00,59.7,55.5,29.50,NE,45,3.7,-999.0,86,-99.99,,,0.90,Acu-Link.com,2013-06-14 02:14:00,
2013-06-13 22:29:00,59.4,55.5,29.51,NNW,337,1.7,-999.0,87,-99.99,,,0.90,Acu-Link.com,2013-06-14 02:29:00,
2013-06-13 22:45:00,59.0,55.1,29.51,WNW,292,1.7,-999.0,87,-99.99,,,0.91,Acu-Link.com,2013-06-14 02:45:00,
2013-06-13 23:00:00,58.8,54.9,29.52,North,0,4.7,-999.0,87,-99.99,,,0.91,Acu-Link.com,2013-06-14 03:00:00,
2013-06-13 23:15:00,58.8,54.9,29.52,NE,45,4.7,-999.0,87,-99.99,,,0.91,Acu-Link.com,2013-06-14 03:15:00,
2013-06-13 23:31:00,58.8,54.9,29.53,East,90,8.3,-999.0,87,-99.99,,,0.91,Acu-Link.com,2013-06-14 03:31:00,
2013-06-13 23:46:00,58.6,54.7,29.54,North,0,4.7,-999.0,87,-99.99,,,0.91,Acu-Link.com,2013-06-14 03:46:00,